CheckWX is a tool to help pilots better visualize weather data.  It is not intended as a substitute for an official pre-flight weather briefing.

06:04:38 UTC

KDVL TAF
Devils Lake Regional Airport
Devils Lake, North Dakota, USA
KDVL 041120Z 0412/0512 12003KT P6SM SKC FM041700 14012KT P6SM SCT100 FM050900 21006KT P6SM SCT200 FM051100 25005KT P6SM SCT120

Apr-4@
12:00 UTC

Apr-4 @ 12:00 UTC

Apr-4@
17:00 UTC

Apr-4 @ 17:00 UTC

TAF KDVL 041120Z 0412/0512 12003KT P6SM SKC

Expired

Wind
  • 120° at 3 KTS
Cloud Levels
  • Clear skies

Apr-4@
17:00 UTC

Apr-4 @ 17:00 UTC

Apr-5@
09:00 UTC

Apr-5 @ 09:00 UTC

FM041700 14012KT P6SM SCT100

From

From Standard forecast or significant change

Wind
  • 140° at 12 KTS
Cloud Levels
  • Scattered at 10,000' AGL

Apr-5@
09:00 UTC

Apr-5 @ 09:00 UTC

Apr-5@
11:00 UTC

Apr-5 @ 11:00 UTC

FM050900 21006KT P6SM SCT200

From

From Standard forecast or significant change

Wind
  • 210° at 6 KTS
Cloud Levels
  • Scattered at 20,000' AGL

Apr-5@
11:00 UTC

Apr-5 @ 11:00 UTC

Apr-5@
12:00 UTC

Apr-5 @ 12:00 UTC

FM051100 25005KT P6SM SCT120

From

From Standard forecast or significant change

Wind
  • 250° at 5 KTS
Cloud Levels
  • Scattered at 12,000' AGL